KAVP

Wilkes-Barre / Scranton International Airport

Wilkes-Barre/Scranton, Pennsylvania, USA
METAR KAVP 251354Z 36005KT 3SM RA BR OVC017 13/12 A3031 RMK AO2 SLP262 P0013 T01280122
Observed Flight Rules
Sep-25 @ 13:54 UTC (an hour ago) Marginal Visual Flight Rules
Wind Visibility Clouds Conditions
360° at 5 knots 3 miles
  • Overcast at 1,700' AGL
  • Rain
  • Mist
Temperatures Readings Precipitation
Current 13°C / 55°F
Dewpoint 12°C / 54°F
Humidity 94%
Altimeter 30.31" Hg
Pressure 1026.2 hPa
Elevation 291
Current Rain 0.13
METAR KAVP 251354Z 36005KT 3SM RA BR OVC017 13/12 A3031 RMK AO2 SLP262 P0013 T01280122
Observed Flight Rules
Sep-25 @ 13:54 UTC
(an hour ago)
MVFR
Wind Visibility
360° at 5 knots 3 miles
Clouds
  • Overcast at 1,700' AGL
Conditions
  • Rain
  • Mist
Temperature Dewpoint
13°C / 55°F 12°C / 54°F
Humidity Altimeter Pressure
94% 30.31" Hg 1026.2 hPa
Current Rain
0.13